Time;durP1;ratioP1;P1;durP2;ratioP2;P2;SDS_P1;SDS_P2;PMS_P1;PMS_P2;Temp;Humidity;BMP_temperature;BMP_pressure;BME280_temperature;BME280_humidity;BME280_pressure;Samples;Min_cycle;Max_cycle;Signal;HPM_P1;HPM_P2
2022/09/18 00:00:47;;;;;;;5.83;5.40;;;11.80;1.00;;;;;;6287335;28;20236;-56
2022/09/18 00:03:50;;;;;;;6.23;5.63;;;11.80;1.00;;;;;;6280826;28;20287;-55
2022/09/18 00:06:53;;;;;;;7.03;5.83;;;11.70;1.00;;;;;;6286594;28;20226;-55
2022/09/18 00:09:56;;;;;;;5.30;5.10;;;11.70;1.00;;;;;;6281567;28;20245;-55
2022/09/18 00:13:01;;;;;;;6.47;5.97;;;11.70;1.00;;;;;;6281320;28;20252;-55
2022/09/18 00:16:04;;;;;;;6.23;5.83;;;11.70;1.00;;;;;;6276792;28;20236;-55
2022/09/18 00:19:07;;;;;;;6.10;5.70;;;11.60;1.00;;;;;;6268995;28;20635;-54
2022/09/18 00:22:10;;;;;;;8.03;7.33;;;11.50;1.00;;;;;;6281911;28;20264;-53
2022/09/18 00:25:13;;;;;;;7.93;7.33;;;11.50;1.00;;;;;;6283157;28;20235;-54
2022/09/18 00:28:17;;;;;;;6.93;6.33;;;11.60;1.00;;;;;;6262206;28;20252;-56
2022/09/18 00:31:24;;;;;;;6.63;6.13;;;11.50;1.00;;;;;;6250199;28;20290;-55
2022/09/18 00:34:27;;;;;;;5.40;4.90;;;11.50;1.00;;;;;;6276655;28;20291;-54
2022/09/18 00:37:30;;;;;;;4.63;4.27;;;11.50;1.00;;;;;;6312072;28;20479;-55
2022/09/18 00:40:33;;;;;;;4.80;4.30;;;11.50;1.00;;;;;;6311571;28;20264;-55
2022/09/18 00:43:37;;;;;;;4.07;3.97;;;11.50;1.00;;;;;;6285887;28;20764;-53
2022/09/18 00:46:42;;;;;;;5.23;4.93;;;11.50;1.00;;;;;;6287047;28;20349;-54
2022/09/18 00:49:48;;;;;;;5.30;4.90;;;11.50;1.00;;;;;;6284505;28;20311;-54
2022/09/18 00:52:57;;;;;;;4.17;3.80;;;11.50;1.00;;;;;;6282412;28;20241;-55
2022/09/18 00:56:03;;;;;;;3.40;3.30;;;11.50;1.00;;;;;;6285131;28;20229;-54
2022/09/18 00:59:08;;;;;;;3.67;3.50;;;11.50;1.00;;;;;;6264400;28;20230;-54
2022/09/18 01:02:12;;;;;;;4.03;3.80;;;11.40;1.00;;;;;;6262093;28;20241;-54
2022/09/18 01:05:18;;;;;;;4.47;3.77;;;11.40;1.00;;;;;;6294916;28;20236;-54
2022/09/18 01:08:36;;;;;;;3.67;3.47;;;11.30;1.00;;;;;;6282437;28;20237;-55
2022/09/18 01:11:51;;;;;;;3.83;3.73;;;11.30;1.00;;;;;;6283546;28;20233;-53
2022/09/18 01:15:03;;;;;;;3.83;3.63;;;11.30;1.00;;;;;;6286186;28;20237;-57
2022/09/18 01:18:15;;;;;;;3.27;3.07;;;11.30;1.00;;;;;;6285170;28;20683;-55
2022/09/18 01:21:25;;;;;;;3.23;3.10;;;11.20;1.00;;;;;;6282032;28;20686;-55
2022/09/18 01:24:45;;;;;;;4.07;3.83;;;11.20;1.00;;;;;;6285296;28;20237;-53
2022/09/18 01:28:11;;;;;;;3.23;3.13;;;11.20;1.00;;;;;;6279054;28;20230;-55
2022/09/18 01:31:19;;;;;;;3.30;3.00;;;11.20;1.00;;;;;;6260387;28;20321;-53
2022/09/18 01:34:28;;;;;;;2.30;2.20;;;11.20;1.00;;;;;;6296477;28;20248;-54
2022/09/18 01:37:35;;;;;;;2.93;2.80;;;11.10;1.00;;;;;;6292251;28;20237;-55
2022/09/18 01:40:42;;;;;;;2.70;2.70;;;11.30;1.00;;;;;;6260537;28;20242;-55
2022/09/18 01:43:52;;;;;;;2.70;2.60;;;11.10;1.00;;;;;;6276508;28;20238;-56
2022/09/18 01:46:57;;;;;;;3.07;2.87;;;11.00;1.00;;;;;;6267540;28;20223;-54
2022/09/18 01:50:02;;;;;;;2.30;2.27;;;11.00;1.00;;;;;;6272494;28;20225;-56
2022/09/18 01:53:10;;;;;;;1.90;1.90;;;11.00;1.00;;;;;;6282103;28;20233;-55
2022/09/18 01:56:18;;;;;;;2.20;2.20;;;11.00;1.00;;;;;;6260538;28;20234;-55
2022/09/18 01:59:27;;;;;;;2.00;2.00;;;10.90;1.00;;;;;;6259829;28;20277;-55
2022/09/18 02:02:34;;;;;;;2.10;2.10;;;11.00;1.00;;;;;;6264559;28;20245;-55
2022/09/18 02:05:41;;;;;;;2.47;2.30;;;11.00;1.00;;;;;;6300148;28;20857;-54
2022/09/18 02:08:47;;;;;;;2.40;2.13;;;11.00;1.00;;;;;;6262793;28;20649;-54
2022/09/18 02:11:54;;;;;;;2.60;2.50;;;11.00;1.00;;;;;;6260434;28;20238;-56
2022/09/18 02:15:04;;;;;;;2.87;2.67;;;11.00;1.00;;;;;;6259892;28;20237;-55
2022/09/18 02:18:11;;;;;;;2.70;2.60;;;11.00;1.00;;;;;;6262888;28;20237;-55
2022/09/18 02:21:18;;;;;;;3.23;3.13;;;10.90;1.00;;;;;;6284398;28;20243;-55
2022/09/18 02:24:26;;;;;;;3.53;3.53;;;10.90;1.00;;;;;;6267158;28;20521;-55
2022/09/18 02:27:31;;;;;;;4.10;3.90;;;11.00;1.00;;;;;;6255494;28;20289;-55
2022/09/18 02:30:38;;;;;;;4.03;3.70;;;11.00;1.00;;;;;;6258491;28;20241;-55
2022/09/18 02:33:41;;;;;;;3.30;3.20;;;11.00;1.00;;;;;;6270168;28;20252;-54
2022/09/18 02:37:04;;;;;;;3.63;3.37;;;11.00;1.00;;;;;;6291808;28;20241;-55
2022/09/18 02:40:19;;;;;;;3.90;3.80;;;11.00;1.00;;;;;;6298177;28;20994;-53
2022/09/18 02:43:37;;;;;;;3.67;3.47;;;11.00;1.00;;;;;;6291627;28;20236;-55
2022/09/18 02:46:51;;;;;;;4.13;3.93;;;11.00;1.00;;;;;;6300481;28;20225;-54
2022/09/18 02:50:02;;;;;;;4.20;3.90;;;11.00;1.00;;;;;;6291275;28;20707;-54
2022/09/18 02:53:10;;;;;;;3.63;3.33;;;11.00;1.00;;;;;;6279551;28;20268;-60
2022/09/18 02:56:21;;;;;;;3.93;3.63;;;11.00;1.00;;;;;;6282689;28;20237;-55
2022/09/18 02:59:28;;;;;;;3.43;3.30;;;11.00;1.00;;;;;;6282938;28;20626;-54
2022/09/18 03:02:33;;;;;;;4.70;3.77;;;11.00;1.00;;;;;;6274328;28;20586;-54
2022/09/18 03:05:36;;;;;;;10.20;3.87;;;11.00;1.00;;;;;;6298668;28;20239;-54
2022/09/18 03:08:39;;;;;;;5.60;3.60;;;11.00;1.00;;;;;;6307534;28;20826;-53
2022/09/18 03:11:42;;;;;;;7.80;3.73;;;10.90;1.00;;;;;;6272464;28;20641;-54
2022/09/18 03:14:45;;;;;;;6.23;3.60;;;10.90;1.00;;;;;;6282932;28;20237;-54
2022/09/18 03:17:49;;;;;;;10.53;4.30;;;10.90;1.00;;;;;;6282467;28;20618;-55
2022/09/18 03:20:52;;;;;;;7.37;3.57;;;10.90;1.00;;;;;;6281018;28;20698;-55
2022/09/18 03:23:55;;;;;;;8.03;3.70;;;10.90;1.00;;;;;;6283316;28;20241;-54
2022/09/18 03:26:58;;;;;;;11.77;3.60;;;10.90;1.00;;;;;;6284335;28;20431;-54
2022/09/18 03:30:00;;;;;;;6.63;3.90;;;10.90;1.00;;;;;;6281310;28;20225;-54
2022/09/18 03:33:05;;;;;;;7.87;3.57;;;10.90;1.00;;;;;;6263887;28;20737;-54
2022/09/18 03:36:31;;;;;;;11.00;3.83;;;10.90;1.00;;;;;;6281362;28;20248;-54
2022/09/18 03:39:34;;;;;;;10.10;4.23;;;10.80;1.00;;;;;;6287816;28;20236;-55
2022/09/18 03:42:37;;;;;;;13.00;3.83;;;10.80;1.00;;;;;;6280384;28;20256;-54
2022/09/18 03:45:40;;;;;;;14.10;4.20;;;10.80;1.00;;;;;;6277842;28;20229;-55
2022/09/18 03:48:44;;;;;;;16.50;4.77;;;10.80;1.00;;;;;;6280436;28;20276;-55
2022/09/18 03:51:47;;;;;;;19.47;5.17;;;10.80;1.00;;;;;;6279840;28;20240;-55
2022/09/18 03:54:50;;;;;;;14.00;5.10;;;10.80;1.00;;;;;;6280583;28;20607;-55
2022/09/18 03:57:53;;;;;;;13.10;4.57;;;10.80;1.00;;;;;;6282271;28;20247;-54
2022/09/18 04:00:56;;;;;;;14.47;4.83;;;10.80;1.00;;;;;;6282488;28;20237;-54
2022/09/18 04:04:00;;;;;;;12.13;4.97;;;10.80;1.00;;;;;;6282359;28;20241;-54
2022/09/18 04:07:03;;;;;;;11.47;5.07;;;10.80;1.00;;;;;;6281166;28;20233;-56
2022/09/18 04:10:07;;;;;;;13.70;4.70;;;10.80;1.00;;;;;;6293814;28;20221;-55
2022/09/18 04:13:10;;;;;;;16.47;4.97;;;10.80;1.00;;;;;;6286663;28;20705;-54
2022/09/18 04:16:13;;;;;;;10.37;4.90;;;10.70;1.00;;;;;;6288924;28;20715;-56
2022/09/18 04:19:18;;;;;;;18.63;5.27;;;10.70;1.00;;;;;;6285036;28;20229;-55
2022/09/18 04:22:20;;;;;;;12.07;5.30;;;10.70;1.00;;;;;;6291080;28;20232;-55
2022/09/18 04:25:23;;;;;;;14.63;5.03;;;10.70;1.00;;;;;;6294306;28;20236;-55
2022/09/18 04:28:26;;;;;;;8.97;4.97;;;10.70;1.00;;;;;;6288784;28;20225;-56
2022/09/18 04:31:29;;;;;;;12.70;5.23;;;10.70;1.00;;;;;;6288113;28;20241;-55
2022/09/18 04:34:33;;;;;;;13.30;5.70;;;10.70;1.00;;;;;;6283770;28;20694;-55
2022/09/18 04:37:36;;;;;;;9.27;5.30;;;10.70;1.00;;;;;;6292436;28;20233;-56
2022/09/18 04:40:39;;;;;;;12.57;4.90;;;10.70;1.00;;;;;;6295527;28;20241;-55
2022/09/18 04:43:42;;;;;;;8.07;4.77;;;10.70;1.00;;;;;;6274915;28;20637;-55
2022/09/18 04:46:45;;;;;;;11.87;5.43;;;10.70;1.00;;;;;;6291636;28;20234;-55
2022/09/18 04:49:51;;;;;;;9.73;4.83;;;10.60;1.00;;;;;;6285675;28;20488;-55
2022/09/18 04:52:54;;;;;;;9.50;4.90;;;10.60;1.00;;;;;;6283022;28;20246;-55
2022/09/18 04:55:57;;;;;;;15.03;4.93;;;10.60;1.00;;;;;;6281575;28;20237;-56
2022/09/18 04:59:00;;;;;;;12.10;5.00;;;10.60;1.00;;;;;;6285433;28;20380;-56
2022/09/18 05:02:03;;;;;;;10.73;4.87;;;10.60;1.00;;;;;;6283266;28;20384;-57
2022/09/18 05:05:08;;;;;;;8.33;4.63;;;10.60;1.00;;;;;;6284331;28;20721;-55
2022/09/18 05:08:11;;;;;;;6.07;4.30;;;10.60;1.00;;;;;;6284311;28;20700;-55
2022/09/18 05:11:14;;;;;;;9.20;5.23;;;10.50;1.00;;;;;;6282323;28;20229;-55
2022/09/18 05:14:16;;;;;;;10.73;4.93;;;10.50;1.00;;;;;;6288361;28;20244;-56
2022/09/18 05:17:19;;;;;;;13.83;4.40;;;10.50;1.00;;;;;;6291848;28;20476;-56
2022/09/18 05:20:24;;;;;;;13.10;4.17;;;10.50;1.00;;;;;;6277365;28;20237;-56
2022/09/18 05:23:26;;;;;;;5.50;4.30;;;10.50;1.00;;;;;;6286116;28;20225;-57
2022/09/18 05:26:30;;;;;;;11.30;4.40;;;10.50;1.00;;;;;;6282386;28;20582;-56
2022/09/18 05:29:33;;;;;;;7.57;3.60;;;10.50;1.00;;;;;;6288547;28;20933;-56
2022/09/18 05:32:36;;;;;;;11.87;4.30;;;10.50;1.00;;;;;;6285948;28;20229;-54
2022/09/18 05:35:41;;;;;;;8.77;4.03;;;10.50;1.00;;;;;;6285373;28;20749;-55
2022/09/18 05:38:44;;;;;;;8.93;4.33;;;10.50;1.00;;;;;;6285948;28;20232;-56
2022/09/18 05:41:50;;;;;;;8.37;3.80;;;10.40;1.00;;;;;;6295426;28;20876;-55
2022/09/18 05:44:52;;;;;;;5.90;4.13;;;10.40;1.00;;;;;;6288884;28;20230;-55
2022/09/18 05:48:00;;;;;;;7.90;4.13;;;10.40;1.00;;;;;;6296344;28;20233;-55
2022/09/18 05:51:05;;;;;;;11.83;4.47;;;10.40;1.00;;;;;;6290062;28;20229;-55
2022/09/18 05:54:07;;;;;;;12.37;4.20;;;10.40;1.00;;;;;;6281449;28;20702;-56
2022/09/18 05:57:10;;;;;;;9.00;3.67;;;10.40;1.00;;;;;;6285479;28;20237;-54
2022/09/18 06:00:14;;;;;;;9.23;3.63;;;10.40;1.00;;;;;;6284367;28;20875;-54
2022/09/18 06:03:17;;;;;;;7.30;3.70;;;10.30;1.00;;;;;;6298865;28;20624;-56
2022/09/18 06:06:22;;;;;;;6.73;3.43;;;10.30;1.00;;;;;;6280722;28;20681;-55
2022/09/18 06:09:25;;;;;;;9.30;3.90;;;10.30;1.00;;;;;;6289802;28;20236;-56
2022/09/18 06:12:28;;;;;;;12.70;4.43;;;10.40;1.00;;;;;;6276034;28;20237;-56
2022/09/18 06:15:31;;;;;;;8.50;3.63;;;10.40;1.00;;;;;;6289684;28;20805;-54
2022/09/18 06:18:34;;;;;;;5.37;3.10;;;10.40;1.00;;;;;;6291164;28;20236;-56
2022/09/18 06:21:38;;;;;;;6.77;3.57;;;10.40;1.00;;;;;;6286512;28;20390;-56
2022/09/18 06:24:41;;;;;;;6.87;3.47;;;10.40;1.00;;;;;;6294330;28;20229;-56
2022/09/18 06:27:44;;;;;;;6.77;3.73;;;10.40;1.00;;;;;;6273677;28;20244;-56
2022/09/18 06:30:46;;;;;;;7.03;4.13;;;10.50;1.00;;;;;;6254152;28;20878;-56
2022/09/18 06:33:49;;;;;;;8.67;4.03;;;10.50;1.00;;;;;;6286412;28;20229;-55
2022/09/18 06:36:53;;;;;;;8.00;3.57;;;10.60;1.00;;;;;;6281239;28;20370;-56
2022/09/18 06:39:56;;;;;;;9.60;3.87;;;10.90;1.00;;;;;;6286501;28;20605;-55
2022/09/18 06:43:01;;;;;;;10.40;3.13;;;11.20;1.00;;;;;;6288515;28;20395;-58
2022/09/18 06:46:06;;;;;;;7.63;3.53;;;11.30;1.00;;;;;;6272580;28;20586;-55
2022/09/18 06:49:09;;;;;;;8.20;3.40;;;11.30;1.00;;;;;;6290445;28;20225;-56
2022/09/18 06:52:14;;;;;;;11.43;4.07;;;11.30;1.00;;;;;;6286622;28;20225;-56
2022/09/18 06:55:17;;;;;;;10.33;3.40;;;11.20;1.00;;;;;;6286587;28;20261;-56
2022/09/18 06:58:20;;;;;;;10.43;4.50;;;11.10;1.00;;;;;;6285360;28;20233;-56
2022/09/18 07:01:23;;;;;;;8.00;3.53;;;11.10;1.00;;;;;;6284112;28;20229;-55
2022/09/18 07:04:26;;;;;;;5.80;3.77;;;11.20;1.00;;;;;;6281490;28;20730;-56
2022/09/18 07:07:30;;;;;;;8.43;3.70;;;11.40;1.00;;;;;;6282570;28;20233;-55
2022/09/18 07:10:33;;;;;;;8.33;4.43;;;11.40;1.00;;;;;;6270740;28;20256;-55
2022/09/18 07:13:37;;;;;;;7.27;3.70;;;11.50;1.00;;;;;;6272057;28;20241;-56
2022/09/18 07:16:40;;;;;;;7.37;3.80;;;11.40;1.00;;;;;;6291164;28;20237;-56
2022/09/18 07:19:42;;;;;;;11.33;3.50;;;11.40;1.00;;;;;;6272134;28;20273;-55
2022/09/18 07:22:52;;;;;;;14.50;4.10;;;11.40;1.00;;;;;;6289907;28;20241;-54
2022/09/18 07:25:55;;;;;;;8.77;3.73;;;11.50;1.00;;;;;;6290010;28;20604;-54
2022/09/18 07:28:58;;;;;;;8.83;3.67;;;11.40;1.00;;;;;;6281792;28;20229;-55
2022/09/18 07:32:01;;;;;;;6.23;3.37;;;11.40;1.00;;;;;;6276656;28;20261;-57
2022/09/18 07:35:05;;;;;;;7.00;3.80;;;11.50;1.00;;;;;;6270391;28;20233;-56
2022/09/18 07:38:10;;;;;;;8.37;3.30;;;11.60;1.00;;;;;;6266013;28;20951;-56
2022/09/18 07:41:13;;;;;;;4.43;3.20;;;11.60;1.00;;;;;;6281013;28;20233;-56
2022/09/18 07:44:15;;;;;;;5.53;3.13;;;11.60;1.00;;;;;;6280419;28;20233;-55
2022/09/18 07:47:18;;;;;;;8.97;3.10;;;11.60;1.00;;;;;;6293365;28;20226;-55
2022/09/18 07:50:21;;;;;;;5.40;3.03;;;11.60;1.00;;;;;;6290260;28;20623;-55
2022/09/18 07:53:28;;;;;;;11.63;3.73;;;11.70;1.00;;;;;;6284011;28;20591;-55
2022/09/18 07:56:31;;;;;;;6.63;3.50;;;11.80;1.00;;;;;;6286971;28;20654;-53
2022/09/18 07:59:33;;;;;;;6.60;3.17;;;11.80;1.00;;;;;;6283835;28;20248;-55
2022/09/18 08:02:36;;;;;;;7.67;3.10;;;11.90;1.00;;;;;;6286768;28;20240;-54
2022/09/18 08:05:40;;;;;;;6.40;3.60;;;12.00;1.00;;;;;;6274152;28;20341;-54
2022/09/18 08:08:44;;;;;;;9.97;4.47;;;12.00;1.00;;;;;;6288722;28;20247;-58
2022/09/18 08:11:51;;;;;;;7.07;3.33;;;12.10;1.00;;;;;;6289343;28;20406;-55
2022/09/18 08:14:54;;;;;;;8.60;3.07;;;12.10;1.00;;;;;;6272604;28;20233;-54
2022/09/18 08:17:57;;;;;;;4.03;3.40;;;12.30;1.00;;;;;;6281300;28;20237;-56
2022/09/18 08:21:00;;;;;;;8.47;3.37;;;12.40;1.00;;;;;;6282802;28;20236;-55
2022/09/18 08:24:05;;;;;;;9.60;3.47;;;12.40;1.00;;;;;;6275502;28;20244;-54
2022/09/18 08:27:08;;;;;;;6.40;3.30;;;12.40;1.00;;;;;;6290008;28;20236;-55
2022/09/18 08:30:13;;;;;;;5.37;3.10;;;12.50;1.00;;;;;;6281598;28;20252;-55
2022/09/18 08:33:16;;;;;;;7.57;2.90;;;12.50;1.00;;;;;;6278756;28;20252;-53
2022/09/18 08:36:19;;;;;;;4.23;3.07;;;12.50;1.00;;;;;;6292453;28;20239;-59
2022/09/18 08:39:23;;;;;;;5.23;3.13;;;12.50;1.00;;;;;;6277505;28;20237;-55
2022/09/18 08:42:34;;;;;;;10.20;3.50;;;12.50;1.00;;;;;;6276914;28;20244;-55
2022/09/18 08:45:51;;;;;;;6.30;3.67;;;12.50;1.00;;;;;;6270590;28;20249;-55
2022/09/18 08:49:05;;;;;;;8.33;3.60;;;12.60;1.00;;;;;;6275873;28;20240;-56
2022/09/18 08:52:13;;;;;;;6.37;3.43;;;12.70;1.00;;;;;;6283031;28;20229;-55
2022/09/18 08:55:26;;;;;;;4.60;2.87;;;12.80;1.00;;;;;;6282258;28;20221;-55
2022/09/18 08:58:34;;;;;;;5.80;3.17;;;12.80;1.00;;;;;;6285586;28;20607;-55
2022/09/18 09:01:45;;;;;;;9.70;3.10;;;13.00;1.00;;;;;;6288721;28;20230;-55
2022/09/18 09:04:48;;;;;;;8.20;3.50;;;13.10;1.00;;;;;;6279265;28;20233;-54
2022/09/18 09:08:32;;;;;;;4.17;2.70;;;13.10;1.00;;;;;;6283799;28;20232;-56
2022/09/18 09:11:45;;;;;;;8.17;2.73;;;13.30;1.00;;;;;;6274734;28;20237;-56
2022/09/18 09:15:03;;;;;;;7.53;2.47;;;13.50;1.00;;;;;;6275300;28;20233;-56
2022/09/18 09:18:16;;;;;;;8.53;3.10;;;13.50;1.00;;;;;;6285162;28;20233;-54
2022/09/18 09:21:22;;;;;;;6.83;3.30;;;13.40;1.00;;;;;;6286307;28;20241;-56
2022/09/18 09:24:31;;;;;;;5.77;2.83;;;13.30;1.00;;;;;;6275953;28;20236;-55
2022/09/18 09:27:40;;;;;;;6.20;2.90;;;13.30;1.00;;;;;;6290230;28;20240;-55
2022/09/18 09:30:46;;;;;;;4.70;2.40;;;13.30;1.00;;;;;;6279730;28;20242;-55
2022/09/18 09:33:55;;;;;;;4.37;2.50;;;13.40;1.00;;;;;;6293311;28;20233;-55
2022/09/18 09:37:03;;;;;;;2.83;2.67;;;13.40;1.00;;;;;;6285259;28;20732;-54
2022/09/18 09:40:14;;;;;;;7.03;2.53;;;13.50;1.00;;;;;;6290162;28;20221;-56
2022/09/18 09:43:27;;;;;;;6.23;2.60;;;13.60;1.00;;;;;;6290280;28;20224;-54
2022/09/18 09:47:00;;;;;;;4.17;2.60;;;13.70;1.00;;;;;;6286745;28;20768;-60
2022/09/18 09:50:12;;;;;;;5.70;3.33;;;13.80;1.00;;;;;;6278464;28;20236;-56
2022/09/18 09:53:15;;;;;;;6.13;2.80;;;13.90;1.00;;;;;;6281800;28;20225;-55
2022/09/18 09:56:24;;;;;;;5.83;2.50;;;13.90;1.00;;;;;;6287336;28;20233;-57
2022/09/18 09:59:38;;;;;;;5.00;2.90;;;13.90;1.00;;;;;;6271396;28;20229;-55
2022/09/18 10:03:00;;;;;;;5.10;2.83;;;13.80;1.00;;;;;;6282804;28;20315;-56
2022/09/18 10:06:11;;;;;;;8.20;2.60;;;13.80;1.00;;;;;;6267790;28;20315;-56
2022/09/18 10:09:21;;;;;;;4.03;2.70;;;13.60;1.00;;;;;;6253935;28;20235;-55
2022/09/18 10:12:30;;;;;;;3.47;2.57;;;13.40;1.00;;;;;;6281876;28;20240;-55
2022/09/18 10:15:38;;;;;;;5.23;2.57;;;13.20;1.00;;;;;;6289510;28;20234;-56
2022/09/18 10:18:44;;;;;;;6.57;2.33;;;13.20;1.00;;;;;;6293408;28;20241;-57
2022/09/18 10:21:49;;;;;;;7.50;3.37;;;13.50;1.00;;;;;;6257703;28;20263;-57
2022/09/18 10:24:59;;;;;;;4.37;2.40;;;13.60;1.00;;;;;;6278136;28;20770;-55
2022/09/18 10:28:02;;;;;;;2.87;2.33;;;13.70;1.00;;;;;;6284057;28;20303;-56
2022/09/18 10:31:09;;;;;;;5.07;2.70;;;13.80;1.00;;;;;;6293246;28;20471;-56
2022/09/18 10:34:32;;;;;;;2.83;2.33;;;14.00;1.00;;;;;;6269149;28;20627;-56
2022/09/18 10:37:39;;;;;;;8.97;2.57;;;14.10;1.00;;;;;;6270489;28;20233;-57
2022/09/18 10:40:42;;;;;;;4.50;2.43;;;13.90;1.00;;;;;;6273362;28;20242;-57
2022/09/18 10:43:54;;;;;;;2.83;2.63;;;13.80;1.00;;;;;;6277193;28;20484;-56
2022/09/18 10:47:06;;;;;;;3.20;2.43;;;13.80;1.00;;;;;;6296859;28;20264;-56
2022/09/18 10:50:18;;;;;;;4.73;2.50;;;14.10;1.00;;;;;;6300137;28;20237;-57
2022/09/18 10:53:28;;;;;;;6.67;2.83;;;14.50;1.00;;;;;;6257328;28;20754;-56
2022/09/18 10:56:32;;;;;;;2.57;2.37;;;14.70;1.00;;;;;;6280931;28;20235;-57
2022/09/18 10:59:35;;;;;;;4.77;2.23;;;14.70;1.00;;;;;;6283684;28;20242;-55
2022/09/18 11:02:44;;;;;;;4.77;2.60;;;14.50;1.00;;;;;;6276153;28;20716;-57
2022/09/18 11:05:51;;;;;;;2.97;2.53;;;14.20;1.00;;;;;;6282345;28;20352;-57
2022/09/18 11:08:56;;;;;;;2.53;2.33;;;14.00;1.00;;;;;;6291107;28;20237;-55
2022/09/18 11:11:59;;;;;;;2.70;2.50;;;13.90;1.00;;;;;;6282122;28;20325;-54
2022/09/18 11:15:05;;;;;;;3.60;2.60;;;14.00;1.00;;;;;;6283556;28;20732;-55
2022/09/18 11:18:15;;;;;;;3.77;2.70;;;14.30;1.00;;;;;;6280279;28;20232;-56
2022/09/18 11:21:17;;;;;;;3.33;2.40;;;14.50;1.00;;;;;;6284353;28;20233;-56
2022/09/18 11:24:26;;;;;;;3.03;2.73;;;14.80;1.00;;;;;;6283014;28;20247;-57
2022/09/18 11:27:43;;;;;;;4.17;2.30;;;15.00;1.00;;;;;;6295329;28;20226;-56
2022/09/18 11:30:56;;;;;;;2.23;2.07;;;14.90;1.00;;;;;;6290368;28;20474;-55
2022/09/18 11:34:00;;;;;;;2.43;2.23;;;14.40;1.00;;;;;;6290936;28;20236;-56
2022/09/18 11:37:11;;;;;;;4.43;2.30;;;13.90;1.00;;;;;;6281305;28;20759;-56
2022/09/18 11:40:20;;;;;;;3.33;2.50;;;13.70;1.00;;;;;;6288089;28;20256;-57
2022/09/18 11:43:26;;;;;;;3.50;2.30;;;13.50;1.00;;;;;;6283388;28;21191;-58
2022/09/18 11:46:40;;;;;;;3.20;2.20;;;13.60;1.00;;;;;;6273005;28;20241;-56
2022/09/18 11:49:48;;;;;;;2.50;2.30;;;13.80;1.00;;;;;;6294514;28;20263;-55
2022/09/18 11:52:54;;;;;;;3.50;2.37;;;14.00;1.00;;;;;;6288169;28;20490;-56
2022/09/18 11:56:02;;;;;;;3.60;2.43;;;14.10;1.00;;;;;;6273418;28;20240;-56
2022/09/18 11:59:10;;;;;;;6.30;2.80;;;14.30;1.00;;;;;;6288093;28;20261;-56
2022/09/18 12:02:20;;;;;;;4.03;2.73;;;14.50;1.00;;;;;;6279296;28;20225;-56
2022/09/18 12:05:28;;;;;;;4.07;2.57;;;14.70;1.00;;;;;;6282328;28;20232;-56
2022/09/18 12:08:47;;;;;;;6.63;2.80;;;15.00;1.00;;;;;;6286600;28;20228;-55
2022/09/18 12:11:55;;;;;;;3.37;2.70;;;15.30;1.00;;;;;;6285222;28;20248;-57
2022/09/18 12:15:04;;;;;;;4.90;2.30;;;15.40;1.00;;;;;;6287228;28;20233;-56
2022/09/18 12:18:13;;;;;;;7.23;2.80;;;15.60;1.00;;;;;;6268030;28;20230;-57
2022/09/18 12:21:21;;;;;;;5.87;2.80;;;15.60;1.00;;;;;;6286821;28;20760;-56
2022/09/18 12:24:24;;;;;;;1.93;1.80;;;15.20;1.00;;;;;;6298802;28;20233;-54
2022/09/18 12:27:35;;;;;;;3.20;2.00;;;14.70;1.00;;;;;;6267129;28;20260;-54
2022/09/18 12:30:47;;;;;;;2.13;2.03;;;14.10;1.00;;;;;;6289820;28;20272;-54
2022/09/18 12:33:57;;;;;;;2.80;2.23;;;13.60;1.00;;;;;;6294925;28;20277;-54
2022/09/18 12:37:17;;;;;;;2.20;2.10;;;13.40;1.00;;;;;;6279749;28;20243;-55
2022/09/18 12:40:37;;;;;;;1.83;1.73;;;13.40;1.00;;;;;;6284386;28;20229;-54
2022/09/18 12:44:02;;;;;;;2.40;2.30;;;13.60;1.00;;;;;;6276136;28;20234;-55
2022/09/18 12:47:27;;;;;;;2.13;2.03;;;13.70;1.00;;;;;;6263777;28;20233;-55
2022/09/18 12:50:46;;;;;;;1.67;1.60;;;13.90;1.00;;;;;;6287789;28;20329;-55
2022/09/18 12:54:00;;;;;;;2.67;2.10;;;14.10;1.00;;;;;;6286916;28;20736;-55
2022/09/18 12:57:32;;;;;;;2.07;1.90;;;14.30;1.00;;;;;;6285762;28;20248;-55
2022/09/18 13:00:38;;;;;;;2.40;2.07;;;14.40;1.00;;;;;;6271793;28;20230;-56
2022/09/18 13:03:43;;;;;;;2.27;2.10;;;14.50;1.00;;;;;;6288423;28;26127;-56
2022/09/18 13:06:52;;;;;;;2.47;2.37;;;14.60;1.00;;;;;;6271487;28;20240;-56
2022/09/18 13:10:14;;;;;;;4.33;2.70;;;14.50;1.00;;;;;;6279467;28;20677;-55
2022/09/18 13:13:23;;;;;;;3.40;2.57;;;14.50;1.00;;;;;;6288200;28;20248;-56
2022/09/18 13:16:33;;;;;;;3.67;2.60;;;14.50;1.00;;;;;;6284393;28;20241;-56
2022/09/18 13:19:42;;;;;;;3.97;2.67;;;14.60;1.00;;;;;;6289308;28;20584;-55
2022/09/18 13:22:48;;;;;;;3.27;2.40;;;14.70;1.00;;;;;;6287609;28;20613;-54
2022/09/18 13:25:58;;;;;;;8.53;2.30;;;14.70;1.00;;;;;;6295636;28;20225;-55
2022/09/18 13:29:02;;;;;;;2.33;2.23;;;14.60;1.00;;;;;;6289775;28;20237;-55
2022/09/18 13:32:05;;;;;;;3.07;2.23;;;14.60;1.00;;;;;;6286047;28;20738;-56
2022/09/18 13:35:20;;;;;;;6.37;2.40;;;14.50;1.00;;;;;;6289191;28;20229;-56
2022/09/18 13:38:26;;;;;;;2.10;2.00;;;14.40;1.00;;;;;;6292006;28;20244;-56
2022/09/18 13:41:42;;;;;;;2.23;2.03;;;14.60;1.00;;;;;;6295584;28;20740;-54
2022/09/18 13:44:50;;;;;;;2.13;2.03;;;14.80;1.00;;;;;;6283120;28;20241;-56
2022/09/18 13:48:03;;;;;;;1.83;1.83;;;14.80;1.00;;;;;;6259521;28;20617;-56
2022/09/18 13:51:10;;;;;;;1.80;1.80;;;14.90;1.00;;;;;;6285607;28;20677;-56
2022/09/18 13:54:34;;;;;;;1.73;1.73;;;14.80;1.00;;;;;;6281523;28;20793;-55
2022/09/18 13:57:40;;;;;;;1.73;1.73;;;14.60;1.00;;;;;;6284709;28;20241;-55
2022/09/18 14:00:42;;;;;;;3.27;1.90;;;14.50;1.00;;;;;;6287487;28;20237;-55
2022/09/18 14:03:46;;;;;;;1.80;1.80;;;14.30;1.00;;;;;;6282634;28;20973;-55
2022/09/18 14:06:48;;;;;;;2.03;1.80;;;14.10;1.00;;;;;;6285558;28;20237;-57
2022/09/18 14:09:53;;;;;;;2.40;2.20;;;14.10;1.00;;;;;;6286086;28;20232;-54
2022/09/18 14:13:24;;;;;;;2.77;2.10;;;14.10;1.00;;;;;;6288367;28;20243;-56
2022/09/18 14:16:40;;;;;;;2.10;1.80;;;14.00;1.00;;;;;;6288311;28;20296;-56
2022/09/18 14:19:44;;;;;;;2.10;2.10;;;14.00;1.00;;;;;;6277807;28;20709;-55
2022/09/18 14:22:47;;;;;;;1.90;1.80;;;13.90;1.00;;;;;;6266213;28;20241;-55
2022/09/18 14:25:51;;;;;;;1.93;1.80;;;13.80;1.00;;;;;;6286052;28;20380;-54
2022/09/18 14:28:55;;;;;;;2.13;2.07;;;13.60;1.00;;;;;;6295570;28;20236;-55
2022/09/18 14:32:00;;;;;;;1.80;1.70;;;13.50;1.00;;;;;;6285990;28;20237;-55
2022/09/18 14:35:28;;;;;;;2.33;2.07;;;13.50;1.00;;;;;;6287427;28;20232;-55
2022/09/18 14:38:34;;;;;;;2.47;2.37;;;13.40;1.00;;;;;;6287153;28;20748;-55
2022/09/18 14:41:38;;;;;;;2.80;2.60;;;13.40;1.00;;;;;;6282407;28;20252;-55
2022/09/18 14:44:47;;;;;;;2.30;2.20;;;13.40;1.00;;;;;;6284446;28;20619;-55
2022/09/18 14:47:50;;;;;;;2.20;2.10;;;13.40;1.00;;;;;;6287254;28;20233;-56
2022/09/18 14:51:03;;;;;;;2.13;2.13;;;13.30;1.00;;;;;;6294698;28;20241;-54
2022/09/18 14:54:20;;;;;;;1.87;1.73;;;13.20;1.00;;;;;;6282487;28;20256;-55
2022/09/18 14:57:26;;;;;;;2.53;2.13;;;13.20;1.00;;;;;;6285686;28;20237;-55
2022/09/18 15:00:33;;;;;;;2.20;2.20;;;13.00;1.00;;;;;;6285541;28;20229;-56
2022/09/18 15:03:41;;;;;;;2.20;2.10;;;13.10;1.00;;;;;;6272530;28;20627;-55
2022/09/18 15:06:46;;;;;;;3.10;2.67;;;13.00;1.00;;;;;;6294004;28;20251;-54
2022/09/18 15:09:52;;;;;;;2.20;2.10;;;13.00;1.00;;;;;;6283442;28;20939;-57
2022/09/18 15:12:57;;;;;;;2.30;2.27;;;12.90;1.00;;;;;;6281288;28;20229;-55
2022/09/18 15:16:03;;;;;;;2.10;2.00;;;13.00;1.00;;;;;;6278667;28;20690;-55
2022/09/18 15:19:17;;;;;;;2.40;2.20;;;13.20;1.00;;;;;;6281426;28;20712;-55
2022/09/18 15:22:21;;;;;;;2.73;2.53;;;13.30;1.00;;;;;;6291613;28;20241;-54
2022/09/18 15:25:28;;;;;;;2.80;2.03;;;13.40;1.00;;;;;;6287360;28;20229;-55
2022/09/18 15:28:34;;;;;;;2.13;2.03;;;13.30;1.00;;;;;;6287480;28;20478;-54
2022/09/18 15:31:38;;;;;;;2.20;2.00;;;13.30;1.00;;;;;;6280646;28;20253;-54
2022/09/18 15:34:47;;;;;;;2.00;1.90;;;13.30;1.00;;;;;;6282087;28;20637;-53
2022/09/18 15:37:53;;;;;;;2.57;2.07;;;13.30;1.00;;;;;;6296458;28;20239;-54
2022/09/18 15:40:56;;;;;;;2.33;1.90;;;13.20;1.00;;;;;;6288054;28;20406;-56
2022/09/18 15:43:59;;;;;;;2.30;2.20;;;13.10;1.00;;;;;;6291841;28;20434;-56
2022/09/18 15:47:29;;;;;;;2.27;2.17;;;13.00;1.00;;;;;;6289485;28;20236;-57
2022/09/18 15:50:39;;;;;;;2.17;1.97;;;12.90;1.00;;;;;;6278554;28;20617;-54
2022/09/18 15:54:01;;;;;;;2.30;2.10;;;12.90;1.00;;;;;;6287104;28;20233;-55
2022/09/18 15:57:04;;;;;;;1.90;1.90;;;12.80;1.00;;;;;;6292112;28;20686;-54
2022/09/18 16:00:18;;;;;;;2.23;2.00;;;12.70;1.00;;;;;;6292071;28;20252;-54
2022/09/18 16:03:22;;;;;;;2.13;2.03;;;12.70;1.00;;;;;;6281688;28;20229;-53
2022/09/18 16:06:27;;;;;;;2.20;2.20;;;12.60;1.00;;;;;;6285183;28;20232;-53
2022/09/18 16:09:40;;;;;;;2.27;2.20;;;12.60;1.00;;;;;;6283915;28;20233;-56
2022/09/18 16:12:43;;;;;;;2.30;2.20;;;12.60;1.00;;;;;;6291829;28;20240;-52
2022/09/18 16:15:47;;;;;;;3.80;2.20;;;12.60;1.00;;;;;;6280613;28;20244;-54
2022/09/18 16:18:54;;;;;;;2.10;2.10;;;12.50;1.00;;;;;;6300528;28;20724;-54
2022/09/18 16:22:06;;;;;;;2.87;2.33;;;12.50;1.00;;;;;;6288433;28;20604;-53
2022/09/18 16:25:13;;;;;;;2.70;2.60;;;12.40;1.00;;;;;;6283046;28;20781;-54